Latest Weather Observations for Green Cape

IDN60801

Issued at 1:52 pm EDT Thursday 23 January 2020 (issued every 10 minutes, with the page automatically refreshed every 10 minutes)

About weather observations | Map of weather stations | Latest weather observations for NSW | Other Formats
Station Details ID: 069137 Name: GREEN CAPE AWS Lat: -37.26 Lon: 150.05 Height: 19.4 m
Data from the previous 72 hours. | See also: Recent months at Green Cape
Date/Time
EDT
Temp
°C
App
Temp
°C
Dew
Point
°C
Rel
Hum
%
Delta-T
°C
Wind Press
QNH
hPa
Press
MSL
hPa
Rain since
9am
mm
Dir  Spd
km/h
Gust
km/h
Spd
kts
Gust
kts
23/01:30pm 19.3 14.3 17.1 87 1.3 S 39 44 21 24 996.3 996.2 0.0
23/01:00pm 19.6 13.7 17.2 86 1.5 S 44 52 24 28 996.5 996.4 0.0
23/12:30pm 19.7 13.9 17.3 86 1.5 S 44 54 24 29 997.1 997.0 0.0
23/12:00pm 19.9 16.1 17.3 85 1.6 S 33 44 18 24 996.5 996.4 0.0
23/11:30am 21.2 19.6 18.4 84 1.7 SSE 24 39 13 21 996.1 996.0 0.0
23/11:00am 22.4 20.4 19.9 86 1.6 N 30 35 16 19 995.2 995.1 0.0
23/10:30am 21.7 20.2 20.2 91 1.0 N 28 33 15 18 995.1 995.0 0.0
23/10:00am 21.3 19.6 19.9 92 0.9 N 28 33 15 18 995.1 995.0 0.0
23/09:30am 21.7 18.9 20.2 91 1.0 N 35 41 19 22 995.6 995.5 0.0
23/09:00am 21.8 19.1 20.4 92 0.9 N 35 43 19 23 995.7 995.6 0.0
23/08:30am 21.6 18.2 20.6 94 0.6 N 39 44 21 24 995.6 995.5 0.0
23/08:00am 21.3 18.7 20.6 96 0.5 N 35 39 19 21 995.9 995.8 0.0
23/07:30am 21.1 18.9 20.4 96 0.5 N 32 37 17 20 996.2 996.1 0.0
23/07:00am 21.2 18.1 20.5 96 0.5 NNE 37 43 20 23 996.0 995.9 0.0
23/06:30am 21.3 17.5 20.6 96 0.5 N 41 46 22 25 996.0 995.9 0.0
23/06:00am 21.3 17.6 20.8 97 0.3 N 41 48 22 26 996.2 996.1 0.0
23/05:30am 21.2 18.3 20.9 98 0.2 N 37 44 20 24 996.6 996.5 0.0
23/05:00am 21.1 18.2 20.8 98 0.2 N 37 44 20 24 996.8 996.7 0.0
23/04:30am 21.2 19.3 21.0 99 0.1 N 32 35 17 19 997.5 997.4 0.0
23/04:00am 21.3 18.9 21.1 99 0.1 NNE 35 41 19 22 998.0 997.9 0.0
23/03:30am 21.3 18.9 21.1 99 0.1 N 35 39 19 21 998.5 998.4 0.0
23/03:00am 21.3 19.5 21.1 99 0.1 N 32 39 17 21 999.1 999.0 0.0
23/02:30am 21.3 19.4 21.0 98 0.2 N 32 37 17 20 999.8 999.7 0.0
23/02:00am 21.8 18.0 21.6 99 0.1 NNE 44 50 24 27 1000.0 999.9 0.0
23/01:30am 21.9 18.7 21.7 99 0.1 NNE 41 50 22 27 1000.5 1000.4 0.0
23/01:00am 22.2 19.5 21.9 98 0.2 NNE 39 48 21 26 1001.1 1001.0 0.0
23/12:30am 22.3 19.6 22.0 98 0.2 N 39 46 21 25 1001.5 1001.4 0.0
23/12:00am 22.3 19.2 22.0 98 0.2 N 41 48 22 26 1001.9 1001.8 0.0
 
Date/Time
EDT
Temp
°C
App
Temp
°C
Dew
Point
°C
Rel
Hum
%
Delta-T
°C
Wind Press
QNH
hPa
Press
MSL
hPa
Rain since
9am
mm
Dir  Spd
km/h
Gust
km/h
Spd
kts
Gust
kts
22/11:30pm 22.6 19.7 22.3 98 0.2 N 41 48 22 26 1002.4 1002.3 0.0
22/11:00pm 22.3 21.6 21.8 97 0.3 NNE 28 33 15 18 1003.0 1002.9 0.0
22/10:30pm 22.2 20.1 21.7 97 0.3 N 35 39 19 21 1003.4 1003.3 0.0
22/10:00pm 22.5 20.1 21.8 96 0.5 N 37 41 20 22 1003.5 1003.4 0.0
22/09:30pm 22.7 19.6 22.0 96 0.5 N 41 48 22 26 1003.5 1003.4 0.0
22/09:00pm 22.8 18.5 22.1 96 0.5 N 48 54 26 29 1003.0 1002.9 0.0
22/08:30pm 22.7 20.3 21.9 95 0.5 N 37 46 20 25 1003.0 1002.9 0.0
22/08:00pm 22.9 19.4 21.9 94 0.7 N 43 48 23 26 1002.8 1002.7 0.0
22/07:30pm 23.1 20.3 21.7 92 0.9 N 39 46 21 25 1002.7 1002.6 0.0
22/07:00pm 23.5 19.4 21.9 91 1.1 N 46 52 25 28 1002.2 1002.1 0.0
22/06:30pm 23.6 20.4 21.7 89 1.3 N 41 48 22 26 1002.1 1002.0 0.0
22/06:00pm 24.3 21.2 22.0 87 1.5 N 41 48 22 26 1002.2 1002.1 0.0
22/05:30pm 23.8 20.8 21.3 86 1.6 NNE 39 46 21 25 1002.1 1002.0 0.0
22/05:00pm 24.1 21.5 21.4 85 1.8 N 37 41 20 22 1002.8 1002.7 0.0
22/04:30pm 24.6 21.9 21.9 85 1.8 N 39 43 21 23 1003.2 1003.1 0.0
22/04:00pm 25.2 22.7 21.7 81 2.3 NNE 37 43 20 23 1003.5 1003.4 0.0
22/03:30pm 25.8 24.2 21.9 79 2.6 NNE 33 37 18 20 1004.2 1004.1 0.0
22/03:00pm 26.1 25.1 22.0 78 2.8 NNE 30 32 16 17 1004.7 1004.6 0.0
22/02:30pm 25.6 24.7 21.5 78 2.7 NNE 28 32 15 17 1005.4 1005.3 0.0
22/02:00pm 26.1 24.9 21.5 76 3.1 NNE 30 33 16 18 1005.8 1005.7 0.0
22/01:30pm 25.2 24.3 21.5 80 2.5 NNE 28 33 15 18 1006.4 1006.3 0.0
22/01:00pm 25.5 24.2 20.7 75 3.2 NNE 28 32 15 17 1006.7 1006.6 0.0
22/12:30pm 25.1 24.4 21.0 78 2.7 NNE 26 30 14 16 1007.1 1007.0 0.0
22/12:00pm 24.6 23.9 20.3 77 2.8 NNE 24 28 13 15 1007.4 1007.3 0.0
22/11:30am 25.2 25.5 21.5 80 2.5 N 22 24 12 13 1007.9 1007.8 0.0
22/11:00am 24.1 23.6 20.0 78 2.7 N 22 24 12 13 1008.1 1008.0 0.0
22/10:30am 23.9 24.0 20.0 79 2.5 NNE 19 22 10 12 1008.4 1008.3 0.0
22/10:00am 23.3 22.6 19.5 79 2.4 NNE 22 24 12 13 1008.6 1008.5 0.0
22/09:30am 22.8 23.1 19.6 82 2.0 NNE 17 19 9 10 1008.9 1008.8 0.0
22/09:00am 21.7 21.2 18.7 83 1.9 NNE 19 20 10 11 1009.1 1009.0 0.0
22/08:30am 21.4 21.7 18.8 85 1.6 NNE 15 17 8 9 1009.4 1009.3 0.0
22/08:00am 20.8 22.3 18.9 89 1.2 N 9 9 5 5 1009.4 1009.3 0.0
22/07:30am 19.8 22.1 18.5 92 0.8 N 4 7 2 4 1009.3 1009.2 0.0
22/07:00am 19.2 20.8 17.9 92 0.8 N 6 9 3 5 1009.3 1009.2 0.0
22/06:30am 18.6 20.0 17.3 92 0.8 NNW 6 7 3 4 1009.1 1009.0 0.0
22/06:00am 19.1 19.7 17.6 91 0.9 N 11 15 6 8 1008.7 1008.6 0.0
22/05:30am 19.1 19.6 17.4 90 1.0 N 11 17 6 9 1008.6 1008.5 0.0
22/05:00am 19.3 19.4 17.4 89 1.2 N 13 19 7 10 1008.3 1008.2 0.0
22/04:30am 19.6 18.8 17.9 90 1.0 NNE 19 22 10 12 1008.2 1008.1 0.0
22/04:00am 19.4 18.8 17.5 89 1.2 NNE 17 20 9 11 1008.5 1008.4 0.0
22/03:30am 19.5 18.3 17.6 89 1.2 NNE 20 24 11 13 1008.8 1008.7 0.0
22/03:00am 19.4 18.3 17.4 88 1.2 NNE 19 20 10 11 1009.1 1009.0 0.0
22/02:30am 19.3 18.8 16.9 86 1.5 NNE 15 19 8 10 1009.6 1009.5 0.0
22/02:00am 18.8 20.8 15.9 83 1.7 CALM 0 6 0 3 1009.9 1009.8 0.0
22/01:30am 18.4 20.1 15.1 81 1.9 CALM 0 0 0 0 1010.2 1010.1 0.0
22/01:00am 18.3 20.0 15.2 82 1.8 CALM 0 0 0 0 1010.3 1010.2 0.0
22/12:30am 18.3 20.0 15.2 82 1.8 CALM 0 0 0 0 1010.4 1010.3 0.0
22/12:00am 18.3 19.9 15.0 81 1.9 CALM 0 0 0 0 1010.7 1010.6 0.0
 
Date/Time
EDT
Temp
°C
App
Temp
°C
Dew
Point
°C
Rel
Hum
%
Delta-T
°C
Wind Press
QNH
hPa
Press
MSL
hPa
Rain since
9am
mm
Dir  Spd
km/h
Gust
km/h
Spd
kts
Gust
kts
21/11:30pm 18.2 19.8 14.9 81 1.9 CALM 0 0 0 0 1010.9 1010.8 0.0
21/11:00pm 18.3 19.9 14.8 80 2.0 CALM 0 4 0 2 1011.1 1011.0 0.0
21/10:30pm 18.4 18.3 14.9 80 2.0 S 9 11 5 6 1011.0 1010.9 0.0
21/10:00pm 18.5 17.3 15.0 80 2.0 S 15 17 8 9 1010.8 1010.7 0.0
21/09:30pm 18.5 17.0 15.2 81 1.9 S 17 20 9 11 1010.4 1010.3 0.0
21/09:00pm 18.7 16.7 15.6 82 1.8 S 20 24 11 13 1010.1 1010.0 0.0
21/08:30pm 18.5 15.6 15.2 81 1.9 S 24 28 13 15 1009.5 1009.4 0.0
21/08:00pm 18.8 15.2 15.3 80 2.1 S 28 32 15 17 1009.1 1009.0 0.0
21/07:30pm 19.1 14.7 15.6 80 2.1 S 33 39 18 21 1008.2 1008.1 0.0
21/07:00pm 19.4 14.6 15.7 79 2.2 S 35 39 19 21 1007.7 1007.6 0.0
21/06:30pm 19.7 15.0 15.8 78 2.3 SSE 35 39 19 21 1007.2 1007.1 0.0
21/06:00pm 19.8 14.7 15.9 78 2.3 SSE 37 43 20 23 1007.0 1006.9 0.0
21/05:30pm 19.7 12.8 15.6 77 2.4 S 46 56 25 30 1005.7 1005.6 0.0
21/05:00pm 20.4 14.3 16.2 77 2.5 SSE 43 52 23 28 1006.0 1005.9 0.0
21/04:30pm 19.9 11.5 15.5 76 2.6 S 54 59 29 32 1005.7 1005.6 0.0
21/04:00pm 20.0 10.8 16.0 78 2.4 S 59 65 32 35 1005.2 1005.1 0.0
21/03:30pm 20.8 12.8 16.6 77 2.5 S 54 61 29 33 1005.6 1005.5 0.0
21/03:00pm 21.2 14.2 16.4 74 2.9 S 48 56 26 30 1005.9 1005.8 0.0
21/02:59pm 21.4 14.4 16.4 73 3.0 S 48 56 26 30 1005.9 1005.8 0.0
21/02:30pm 22.8 19.0 16.6 68 3.8 S 32 37 17 20 1006.7 1006.6 0.0
21/02:00pm 22.5 19.2 16.1 67 3.9 SSW 28 32 15 17 1007.0 1006.9 0.0
21/01:30pm 21.9 17.8 16.0 69 3.6 SW 32 39 17 21 1007.3 1007.2 0.0
21/01:00pm 21.4 18.1 16.1 72 3.2 WSW 28 33 15 18 1007.6 1007.5 0.0
21/12:30pm 21.1 17.9 16.3 74 2.9 WSW 28 35 15 19 1007.6 1007.5 0.0
21/12:00pm 19.9 16.2 16.0 78 2.3 WSW 30 37 16 20 1007.5 1007.4 0.0
21/11:30am 20.2 15.6 16.0 77 2.5 WSW 35 43 19 23 1007.0 1006.9 0.0
21/11:00am 19.6 14.2 15.9 79 2.2 WSW 39 52 21 28 1006.8 1006.7 0.0
21/10:30am 19.5 14.9 16.2 81 2.0 WSW 35 41 19 22 1006.5 1006.4 0.0
21/10:00am 19.5 12.4 16.0 80 2.1 WSW 48 59 26 32 1005.8 1005.7 0.0
21/09:30am 19.3 14.0 16.2 82 1.9 WSW 39 56 21 30 1005.6 1005.5 0.0
21/09:23am 19.4 14.4 16.2 82 1.9 WSW 37 56 20 30 1005.6 1005.5 0.0
21/09:00am 18.9 14.9 16.1 84 1.7 WSW 32 41 17 22 1005.6 1005.5 7.2
21/08:30am 18.6 12.8 16.0 85 1.5 WSW 41 48 22 26 1005.1 1005.0 7.2
21/08:00am 18.3 12.0 15.7 85 1.5 WSW 43 52 23 28 1004.3 1004.2 7.2
21/07:30am 18.2 12.9 16.4 89 1.1 WSW 39 52 21 28 1003.9 1003.8 7.2
21/07:24am 17.8 13.2 16.1 90 1.0 WSW 35 52 19 28 1003.9 1003.8 7.2
21/07:00am 17.5 14.3 16.2 92 0.8 W 28 33 15 18 1003.8 1003.7 7.2
21/06:30am 17.4 14.7 15.6 89 1.1 W 24 30 13 16 1003.4 1003.3 7.2
21/06:00am 17.8 15.9 15.8 88 1.2 W 20 30 11 16 1003.1 1003.0 7.2
21/05:30am 18.2 16.9 15.8 86 1.4 W 17 24 9 13 1002.6 1002.5 7.2
21/05:00am 18.3 16.5 15.6 84 1.6 WSW 19 24 10 13 1002.2 1002.1 7.2
21/04:30am 18.3 16.3 15.6 84 1.6 WSW 20 26 11 14 1001.9 1001.8 7.2
21/04:00am 18.5 16.7 16.1 86 1.4 WSW 20 28 11 15 1001.5 1001.4 7.2
21/03:30am 17.9 16.5 16.9 94 0.6 WSW 20 30 11 16 1001.4 1001.3 7.2
21/03:00am 18.0 17.3 17.4 96 0.4 W 17 20 9 11 1001.5 1001.4 7.2
21/02:30am 18.1 18.1 17.3 95 0.5 W 13 17 7 9 1001.4 1001.3 7.2
21/02:00am 18.0 19.1 17.2 95 0.5 W 7 9 4 5 1001.6 1001.5 7.2
21/01:30am 18.1 19.3 17.3 95 0.5 NW 7 9 4 5 1001.7 1001.6 7.2
21/01:00am 18.1 19.8 17.1 94 0.6 NW 4 6 2 3 1002.0 1001.9 7.2
21/12:30am 18.1 19.4 17.1 94 0.6 NW 6 7 3 4 1002.3 1002.2 7.2
21/12:00am 18.4 19.2 17.4 94 0.6 N 9 13 5 7 1002.4 1002.3 7.2
 
Date/Time
EDT
Temp
°C
App
Temp
°C
Dew
Point
°C
Rel
Hum
%
Delta-T
°C
Wind Press
QNH
hPa
Press
MSL
hPa
Rain since
9am
mm
Dir  Spd
km/h
Gust
km/h
Spd
kts
Gust
kts
20/11:30pm 18.7 19.2 17.5 93 0.7 N 11 15 6 8 1002.2 1002.1 7.2
20/11:00pm 18.6 20.0 17.3 92 0.8 N 6 9 3 5 1002.2 1002.1 7.2
20/10:30pm 18.2 19.8 16.9 92 0.8 NW 4 7 2 4 1002.2 1002.1 7.2
20/10:00pm 18.3 19.0 17.0 92 0.8 N 9 13 5 7 1002.5 1002.4 7.2
20/09:30pm 18.6 20.3 17.1 91 0.9 N 4 6 2 3 1002.8 1002.7 7.2
20/09:00pm 18.9 20.3 17.4 91 0.9 SSE 6 7 3 4 1002.1 1002.0 7.2
20/08:30pm 19.2 21.0 17.3 89 1.2 SE 4 7 2 4 1002.1 1002.0 7.2
20/08:00pm 19.4 20.2 17.4 88 1.2 S 9 9 5 5 1001.4 1001.3 7.2
20/07:30pm 20.0 21.4 17.8 87 1.4 SSE 7 9 4 5 1001.1 1001.0 7.2
20/07:00pm 20.1 21.1 17.7 86 1.5 S 9 11 5 6 1000.7 1000.6 7.2
20/06:30pm 20.5 20.8 17.9 85 1.6 S 13 15 7 8 999.9 999.8 7.2
20/06:00pm 20.3 21.4 17.9 86 1.5 SSW 9 13 5 7 1000.2 1000.1 7.2
20/05:30pm 20.8 23.5 19.5 92 0.8 ESE 4 6 2 3 1000.6 1000.5 7.2
20/05:00pm 20.0 22.0 19.2 95 0.5 NE 7 11 4 6 1001.3 1001.2 7.2
20/04:30pm 18.6 20.2 17.9 96 0.4 ESE 6 9 3 5 1001.8 1001.7 7.2
20/04:00pm 17.7 17.1 16.7 94 0.6 SW 15 24 8 13 1001.2 1001.1 7.0
20/03:30pm 17.0 16.9 15.9 93 0.6 NW 11 17 6 9 1003.2 1003.1 5.8
20/03:00pm 17.8 14.8 15.8 88 1.2 W 26 30 14 16 1002.5 1002.4 4.2
20/02:30pm 21.3 18.3 14.7 66 3.9 NW 24 41 13 22 1002.5 1002.4 0.0
20/02:20pm 23.9 25.4 19.8 78 2.6 N 11 19 6 10 1002.4 1002.3 0.0
20/02:00pm 25.0 27.0 20.0 74 3.3 ESE 9 13 5 7 1000.4 1000.3 0.0

Other formats

Comma delimited format used in spreadsheet applications
http://www.bom.gov.au/fwo/IDN60801/IDN60801.94934.axf

JavaScript Object Notation format (JSON) in row-major order
http://www.bom.gov.au/fwo/IDN60801/IDN60801.94934.json

Data quality

Most of these data are generated automatically and are frequently updated. Quality checks on data are not normally performed. It is possible for incorrect values to appear. Refer to information at About Latest Weather Observations and please check the disclaimer before using these data.